createdAt,value
2023-01-12T00:04:57.347Z,100779.16
2023-01-12T00:11:05.884Z,100782.56
2023-01-12T00:14:37.698Z,100781.72
2023-01-12T00:17:50.024Z,100781.06
2023-01-12T00:23:33.932Z,100772.47
2023-01-12T00:26:33.105Z,100785.00
2023-01-12T00:29:05.851Z,100768.66
2023-01-12T00:31:57.613Z,100781.19
2023-01-12T00:34:46.882Z,100778.00
2023-01-12T00:37:23.315Z,100780.78
2023-01-12T00:40:06.813Z,100777.06
2023-01-12T00:43:02.622Z,100769.81
2023-01-12T00:45:49.316Z,100773.78
2023-01-12T00:48:59.238Z,100768.66
2023-01-12T00:52:05.447Z,100776.19
2023-01-12T00:55:02.233Z,100769.72
2023-01-12T00:57:48.591Z,100764.94
2023-01-12T01:06:35.938Z,100762.06
2023-01-12T01:12:45.787Z,100752.72
2023-01-12T01:15:17.887Z,100743.72
2023-01-12T01:18:00.512Z,100763.25
2023-01-12T01:20:51.313Z,100745.63
2023-01-12T01:23:37.457Z,100746.50
2023-01-12T01:32:10.022Z,100745.34
2023-01-12T01:35:02.477Z,100731.00
2023-01-12T01:37:59.087Z,100733.44
2023-01-12T01:40:35.273Z,100727.19
2023-01-12T01:43:09.433Z,100717.34
2023-01-12T01:45:58.011Z,100712.03
2023-01-12T01:49:11.176Z,100711.91
2023-01-12T01:52:13.025Z,100698.56
2023-01-12T02:01:29.143Z,100697.50
2023-01-12T02:07:17.501Z,100674.34
2023-01-12T02:16:40.048Z,100663.81
2023-01-12T02:19:50.448Z,100660.94
2023-01-12T02:22:55.513Z,100663.41
2023-01-12T02:25:52.774Z,100667.63
2023-01-12T02:28:44.877Z,100668.47
2023-01-12T02:32:11.415Z,100655.09
2023-01-12T02:38:23.382Z,100627.63
2023-01-12T02:41:29.083Z,100637.38
2023-01-12T02:44:14.781Z,100628.56
2023-01-12T02:50:27.511Z,100605.84
2023-01-12T02:53:40.954Z,100608.31
2023-01-12T02:56:28.160Z,100594.41
2023-01-12T02:59:05.093Z,100586.66
2023-01-12T03:01:53.554Z,100600.34
2023-01-12T03:04:28.689Z,100584.31
2023-01-12T03:07:27.927Z,100590.34
2023-01-12T03:10:16.659Z,100569.25
2023-01-12T03:12:56.502Z,100576.00
2023-01-12T03:15:31.523Z,100569.75
2023-01-12T03:18:15.008Z,100566.84
2023-01-12T03:24:05.269Z,100574.50
2023-01-12T03:26:43.215Z,100563.75
2023-01-12T03:29:31.726Z,100556.63
2023-01-12T03:32:01.833Z,100575.13
2023-01-12T03:34:48.914Z,100566.28
2023-01-12T03:38:05.936Z,100559.75
2023-01-12T03:40:53.768Z,100561.31
2023-01-12T03:47:50.978Z,100539.13
2023-01-12T03:50:57.784Z,100531.41
2023-01-12T03:53:58.369Z,100518.84
2023-01-12T03:57:15.954Z,100518.22
2023-01-12T03:59:43.575Z,100508.47
2023-01-12T04:02:20.449Z,100504.75
2023-01-12T04:05:30.566Z,100504.75
2023-01-12T04:08:23.695Z,100497.63
2023-01-12T04:11:07.602Z,100491.59
2023-01-12T04:13:52.737Z,100493.41
2023-01-12T04:16:30.998Z,100481.06
2023-01-12T04:19:06.657Z,100476.50
2023-01-12T04:22:11.524Z,100473.84
2023-01-12T04:24:48.123Z,100471.09
2023-01-12T04:27:18.881Z,100461.44
2023-01-12T04:29:55.029Z,100442.88
2023-01-12T04:32:47.850Z,100422.50
2023-01-12T04:35:30.612Z,100418.84
2023-01-12T04:38:17.396Z,100410.16
2023-01-12T04:41:38.984Z,100415.47
2023-01-12T04:44:08.692Z,100391.94
2023-01-12T04:46:49.369Z,100395.09
2023-01-12T04:49:44.156Z,100391.72
2023-01-12T04:55:15.302Z,100385.34
2023-01-12T04:57:57.364Z,100368.44
2023-01-12T05:00:30.674Z,100372.81
2023-01-12T05:03:19.442Z,100365.91
2023-01-12T05:05:50.035Z,100354.31
2023-01-12T05:08:44.392Z,100349.84
2023-01-12T05:11:13.573Z,100350.09
2023-01-12T05:13:49.075Z,100330.81
2023-01-12T05:16:29.062Z,100300.75
2023-01-12T05:19:07.833Z,100290.25
2023-01-12T05:21:48.790Z,100266.63
2023-01-12T05:24:49.888Z,100256.25
2023-01-12T05:27:27.916Z,100253.72
2023-01-12T05:30:16.590Z,100243.94
2023-01-12T05:32:54.839Z,100247.34
2023-01-12T05:36:08.918Z,100234.06
2023-01-12T05:38:42.810Z,100225.03
2023-01-12T05:41:24.111Z,100208.13
2023-01-12T05:43:55.055Z,100205.34
2023-01-12T05:46:38.544Z,100191.34
2023-01-12T05:49:24.014Z,100193.88
2023-01-12T05:52:21.434Z,100192.69
2023-01-12T05:54:54.303Z,100168.56
2023-01-12T05:57:42.311Z,100185.19
2023-01-12T06:00:15.677Z,100180.50
2023-01-12T06:03:00.820Z,100188.31
2023-01-12T06:05:31.503Z,100174.47
2023-01-12T06:08:07.027Z,100182.66
2023-01-12T06:10:39.967Z,100167.59
2023-01-12T06:13:35.771Z,100186.19
2023-01-12T06:16:16.452Z,100168.19
2023-01-12T06:21:43.852Z,100196.41
2023-01-12T06:24:49.283Z,100184.72
2023-01-12T06:27:24.561Z,100190.97
2023-01-12T06:30:02.816Z,100186.53
2023-01-12T06:32:42.751Z,100200.50
2023-01-12T06:35:24.989Z,100194.13
2023-01-12T06:38:12.153Z,100203.66
2023-01-12T06:40:59.645Z,100205.56
2023-01-12T06:43:56.803Z,100192.06
2023-01-12T06:47:00.503Z,100189.63
2023-01-12T06:49:40.115Z,100201.22
2023-01-12T06:52:16.671Z,100183.59
2023-01-12T06:55:07.588Z,100194.94
2023-01-12T06:57:52.923Z,100192.16
2023-01-12T07:00:44.211Z,100196.66
2023-01-12T07:03:24.367Z,100204.63
2023-01-12T07:06:05.765Z,100194.09
2023-01-12T07:08:50.917Z,100190.63
2023-01-12T07:11:55.635Z,100181.94
2023-01-12T07:14:28.974Z,100189.75
2023-01-12T07:17:18.211Z,100188.78
2023-01-12T07:19:51.792Z,100185.31
2023-01-12T07:25:17.838Z,100190.94
2023-01-12T07:28:27.146Z,100176.47
2023-01-12T07:31:29.853Z,100195.53
2023-01-12T07:34:08.862Z,100192.75
2023-01-12T07:36:46.904Z,100193.81
2023-01-12T07:39:28.787Z,100188.16
2023-01-12T07:42:29.992Z,100196.75
2023-01-12T07:45:08.791Z,100209.91
2023-01-12T07:48:00.906Z,100215.19
2023-01-12T07:50:45.525Z,100214.22
2023-01-12T07:53:30.148Z,100220.66
2023-01-12T07:56:21.759Z,100225.97
2023-01-12T07:58:56.013Z,100216.88
2023-01-12T08:01:32.712Z,100221.38
2023-01-12T08:04:15.149Z,100203.59
2023-01-12T08:06:48.703Z,100223.91
2023-01-12T08:09:25.678Z,100211.94
2023-01-12T08:11:59.108Z,100212.88
2023-01-12T08:20:31.813Z,100231.59
2023-01-12T08:23:11.921Z,100214.91
2023-01-12T08:25:49.507Z,100230.72
2023-01-12T08:28:33.562Z,100218.88
2023-01-12T08:31:06.580Z,100235.69
2023-01-12T08:33:44.786Z,100226.88
2023-01-12T08:36:25.071Z,100226.59
2023-01-12T08:41:59.314Z,100230.97
2023-01-12T08:44:50.761Z,100235.28
2023-01-12T08:47:33.030Z,100227.06
2023-01-12T08:50:21.099Z,100235.88
2023-01-12T08:53:09.264Z,100230.56
2023-01-12T08:55:50.295Z,100250.16
2023-01-12T08:58:25.263Z,100247.25
2023-01-12T09:01:03.640Z,100249.75
2023-01-12T09:03:47.377Z,100260.03
2023-01-12T09:06:54.167Z,100259.91
2023-01-12T09:09:33.653Z,100253.47
2023-01-12T09:12:10.077Z,100264.69
2023-01-12T09:14:40.324Z,100267.94
2023-01-12T09:17:17.983Z,100273.38
2023-01-12T09:19:54.945Z,100270.59
2023-01-12T09:22:34.225Z,100259.03
2023-01-12T09:25:35.436Z,100280.63
2023-01-12T09:28:22.796Z,100276.28
2023-01-12T09:30:53.309Z,100284.72
2023-01-12T09:33:37.579Z,100282.50
2023-01-12T09:36:18.495Z,100289.13
2023-01-12T09:38:59.294Z,100285.25
2023-01-12T09:47:57.399Z,100313.16
2023-01-12T09:50:44.625Z,100299.47
2023-01-12T09:53:26.162Z,100311.78
2023-01-12T09:56:22.248Z,100309.84
2023-01-12T09:59:33.494Z,100315.66
2023-01-12T10:02:17.062Z,100313.81
2023-01-12T10:04:53.300Z,100311.03
2023-01-12T10:07:30.234Z,100326.75
2023-01-12T10:10:01.446Z,100309.94
2023-01-12T10:12:50.856Z,100321.28
2023-01-12T10:15:41.786Z,100323.94
2023-01-12T10:18:47.533Z,100323.22
2023-01-12T10:24:12.049Z,100334.59
2023-01-12T10:27:04.353Z,100343.44
2023-01-12T10:29:43.402Z,100347.03
2023-01-12T10:35:09.285Z,100341.84
2023-01-12T10:37:48.184Z,100341.13
2023-01-12T10:40:43.189Z,100347.75
2023-01-12T10:43:42.897Z,100351.41
2023-01-12T10:46:31.114Z,100356.72
2023-01-12T10:49:30.940Z,100359.63
2023-01-12T10:52:22.450Z,100356.81
2023-01-12T10:55:01.378Z,100363.00
2023-01-12T10:57:30.479Z,100357.69
2023-01-12T11:00:10.728Z,100350.81
2023-01-12T11:02:51.836Z,100356.47
2023-01-12T11:05:44.752Z,100360.78
2023-01-12T11:08:23.801Z,100355.13
2023-01-12T11:10:59.859Z,100363.91
2023-01-12T11:13:38.937Z,100369.13
2023-01-12T11:16:30.977Z,100369.97
2023-01-12T11:19:15.216Z,100369.97
2023-01-12T11:21:59.949Z,100362.69
2023-01-12T11:24:46.006Z,100365.22
2023-01-12T11:27:49.360Z,100359.91
2023-01-12T11:30:41.912Z,100355.16
2023-01-12T11:33:41.091Z,100356.88
2023-01-12T11:36:24.202Z,100341.03
2023-01-12T11:39:07.619Z,100360.97
2023-01-12T11:42:10.493Z,100349.47
2023-01-12T11:45:05.554Z,100344.75
2023-01-12T11:47:53.124Z,100340.13
2023-01-12T11:50:50.814Z,100348.94
2023-01-12T11:53:31.636Z,100357.06
2023-01-12T11:56:27.152Z,100345.59
2023-01-12T11:59:04.229Z,100344.47
2023-01-12T12:02:02.785Z,100346.19
2023-01-12T12:05:23.881Z,100351.38
2023-01-12T12:08:22.883Z,100337.22
2023-01-12T12:11:29.019Z,100339.59
2023-01-12T12:14:44.846Z,100339.59
2023-01-12T12:17:48.019Z,100340.59
2023-01-12T12:20:44.763Z,100350.38
2023-01-12T12:23:56.602Z,100328.22
2023-01-12T12:26:42.644Z,100345.91
2023-01-12T12:29:36.355Z,100347.59
2023-01-12T12:32:04.174Z,100335.41
2023-01-12T12:34:38.180Z,100336.13
2023-01-12T12:37:35.270Z,100331.03
2023-01-12T12:40:38.111Z,100336.13
2023-01-12T12:43:37.097Z,100338.88
2023-01-12T12:47:00.288Z,100334.41
2023-01-12T12:49:33.451Z,100336.94
2023-01-12T12:52:32.375Z,100317.59
2023-01-12T12:55:08.012Z,100320.16
2023-01-12T12:58:02.629Z,100328.81
2023-01-12T13:00:54.093Z,100326.16
2023-01-12T13:03:52.640Z,100321.69
2023-01-12T13:06:36.776Z,100300.53
2023-01-12T13:09:13.312Z,100310.09
2023-01-12T13:12:25.610Z,100313.44
2023-01-12T13:15:23.976Z,100316.09
2023-01-12T13:18:00.944Z,100322.13
2023-01-12T13:20:59.249Z,100308.97
2023-01-12T13:23:53.576Z,100310.53
2023-01-12T13:26:41.989Z,100311.34
2023-01-12T13:29:37.766Z,100312.06
2023-01-12T13:32:35.978Z,100304.94
2023-01-12T13:35:56.694Z,100298.91
2023-01-12T13:38:46.945Z,100308.44
2023-01-12T13:41:46.428Z,100295.28
2023-01-12T13:44:56.749Z,100296.00
2023-01-12T13:47:40.800Z,100289.38
2023-01-12T13:50:35.980Z,100303.97
2023-01-12T13:53:11.850Z,100301.19
2023-01-12T13:55:46.828Z,100301.19
2023-01-12T13:58:29.680Z,100295.00
2023-01-12T14:01:02.078Z,100298.66
2023-01-12T14:04:10.039Z,100297.94
2023-01-12T14:07:12.964Z,100293.44
2023-01-12T14:10:24.784Z,100291.63
2023-01-12T14:13:32.155Z,100287.28
2023-01-12T14:16:42.207Z,100290.91
2023-01-12T14:19:40.291Z,100286.44
2023-01-12T14:22:27.698Z,100280.81
2023-01-12T14:25:14.950Z,100279.81
2023-01-12T14:28:06.544Z,100292.63
2023-01-12T14:30:35.547Z,100289.09
2023-01-12T14:33:11.928Z,100292.63
2023-01-12T14:35:47.756Z,100288.25
2023-01-12T14:38:25.523Z,100289.94
2023-01-12T14:41:07.422Z,100282.94
2023-01-12T14:44:05.449Z,100287.28
2023-01-12T14:46:40.001Z,100275.78
2023-01-12T14:49:36.227Z,100275.78
2023-01-12T14:52:49.098Z,100263.34
2023-01-12T14:55:32.880Z,100275.66
2023-01-12T14:58:17.660Z,100266.00
2023-01-12T15:00:46.723Z,100263.56
2023-01-12T15:03:43.840Z,100258.00
2023-01-12T15:06:16.733Z,100258.13
2023-01-12T15:09:11.532Z,100261.63
2023-01-12T15:11:44.854Z,100247.38
2023-01-12T15:14:39.032Z,100257.03
2023-01-12T15:17:33.851Z,100255.34
2023-01-12T15:20:28.334Z,100247.47
2023-01-12T15:23:23.309Z,100249.03
2023-01-12T15:25:51.000Z,100249.44
2023-01-12T15:28:20.076Z,100241.19
2023-01-12T15:30:55.752Z,100255.34
2023-01-12T15:33:24.109Z,100251.13
2023-01-12T15:35:59.447Z,100255.59
2023-01-12T15:38:29.898Z,100254.78
2023-01-12T15:41:04.886Z,100253.91
2023-01-12T15:43:32.700Z,100244.94
2023-01-12T15:46:20.049Z,100250.41
2023-01-12T15:49:21.791Z,100245.09
2023-01-12T15:52:08.291Z,100244.38
2023-01-12T15:54:49.461Z,100252.22
2023-01-12T15:57:32.393Z,100236.53
2023-01-12T16:00:03.627Z,100238.84
2023-01-12T16:02:47.726Z,100232.75
2023-01-12T16:05:23.277Z,100233.00
2023-01-12T16:07:58.627Z,100240.00
2023-01-12T16:10:31.978Z,100243.06
2023-01-12T16:13:11.924Z,100251.78
2023-01-12T16:15:48.676Z,100243.25
2023-01-12T16:18:29.665Z,100240.69
2023-01-12T16:21:05.446Z,100244.47
2023-01-12T16:23:50.034Z,100241.94
2023-01-12T16:26:23.055Z,100242.06
2023-01-12T16:29:01.364Z,100237.72
2023-01-12T16:31:30.664Z,100237.59
2023-01-12T16:34:14.864Z,100232.41
2023-01-12T16:36:53.544Z,100236.75
2023-01-12T16:39:36.148Z,100232.28
2023-01-12T16:42:08.931Z,100234.22
2023-01-12T16:44:49.003Z,100233.50
2023-01-12T16:47:20.364Z,100228.03
2023-01-12T16:50:01.198Z,100240.97
2023-01-12T16:52:35.995Z,100232.00
2023-01-12T16:55:16.914Z,100231.03
2023-01-12T16:57:49.514Z,100239.16
2023-01-12T17:00:31.052Z,100238.69
2023-01-12T17:03:01.432Z,100239.69
2023-01-12T17:05:37.274Z,100240.41
2023-01-12T17:08:05.843Z,100245.00
2023-01-12T17:10:43.116Z,100229.88
2023-01-12T17:13:12.174Z,100224.69
2023-01-12T17:15:51.149Z,100221.03
2023-01-12T17:18:19.848Z,100234.63
2023-01-12T17:21:17.799Z,100224.94
2023-01-12T17:23:53.302Z,100221.84
2023-01-12T17:26:29.832Z,100231.41
2023-01-12T17:29:07.623Z,100239.94
2023-01-12T17:31:38.198Z,100244.28
2023-01-12T17:34:14.520Z,100241.75
2023-01-12T17:36:47.021Z,100241.75
2023-01-12T17:39:23.359Z,100233.91
2023-01-12T17:42:10.672Z,100249.03
2023-01-12T17:44:46.018Z,100230.53
2023-01-12T17:47:49.016Z,100236.72
2023-01-12T17:50:18.122Z,100248.06
2023-01-12T17:53:02.626Z,100242.03
2023-01-12T17:55:47.493Z,100245.53
2023-01-12T17:58:25.497Z,100234.88
2023-01-12T18:01:02.420Z,100250.59
2023-01-12T18:03:32.060Z,100249.88
2023-01-12T18:06:11.993Z,100249.03
2023-01-12T18:08:51.466Z,100240.19
2023-01-12T18:11:27.333Z,100245.66
2023-01-12T18:13:55.843Z,100246.38
2023-01-12T18:16:32.964Z,100249.88
2023-01-12T18:19:08.109Z,100246.38
2023-01-12T18:21:44.155Z,100236.72
2023-01-12T18:24:16.297Z,100228.00
2023-01-12T18:26:52.112Z,100222.84
2023-01-12T18:29:19.995Z,100227.03
2023-01-12T18:31:56.587Z,100228.72
2023-01-12T18:34:27.927Z,100234.88
2023-01-12T18:37:05.645Z,100241.19
2023-01-12T18:39:40.841Z,100225.34
2023-01-12T18:42:28.583Z,100231.50
2023-01-12T18:45:22.887Z,100232.34
2023-01-12T18:48:11.636Z,100232.34
2023-01-12T18:51:05.041Z,100229.81
2023-01-12T18:53:49.755Z,100220.28
2023-01-12T18:56:23.135Z,100236.72
2023-01-12T18:58:57.592Z,100236.00
2023-01-12T19:01:28.378Z,100242.03
2023-01-12T19:04:10.033Z,100242.03
2023-01-12T19:06:46.794Z,100233.19
2023-01-12T19:09:41.397Z,100235.88
2023-01-12T19:12:18.375Z,100234.06
2023-01-12T19:15:17.814Z,100229.69
2023-01-12T19:17:52.977Z,100238.66
2023-01-12T19:20:28.061Z,100236.13
2023-01-12T19:23:21.375Z,100241.47
2023-01-12T19:26:12.907Z,100244.38
2023-01-12T19:28:47.637Z,100252.22
2023-01-12T19:31:20.987Z,100238.47
2023-01-12T19:33:55.943Z,100227.97
2023-01-12T19:36:32.005Z,100231.06
2023-01-12T19:39:12.790Z,100238.91
2023-01-12T19:42:03.219Z,100234.72
2023-01-12T19:44:38.677Z,100230.25
2023-01-12T19:47:06.869Z,100214.28
2023-01-12T19:49:42.210Z,100213.41
2023-01-12T19:52:28.079Z,100217.75
2023-01-12T19:55:04.457Z,100205.28
2023-01-12T19:57:34.490Z,100215.81
2023-01-12T20:00:08.829Z,100215.94
2023-01-12T20:02:45.429Z,100224.91
2023-01-12T20:05:18.406Z,100209.91
2023-01-12T20:07:53.788Z,100215.22
2023-01-12T20:10:24.006Z,100210.03
2023-01-12T20:12:59.883Z,100215.22
2023-01-12T20:15:39.524Z,100209.06
2023-01-12T20:18:16.568Z,100195.16
2023-01-12T20:20:45.504Z,100192.78
2023-01-12T20:23:22.077Z,100196.59
2023-01-12T20:25:56.957Z,100205.16
2023-01-12T20:28:31.719Z,100214.00
2023-01-12T20:31:00.410Z,100207.81
2023-01-12T20:33:28.893Z,100217.38
2023-01-12T20:36:03.968Z,100200.56
2023-01-12T20:38:32.192Z,100203.06
2023-01-12T20:41:10.933Z,100201.25
2023-01-12T20:43:40.250Z,100202.13
2023-01-12T20:46:20.976Z,100211.78
2023-01-12T20:48:53.140Z,100196.66
2023-01-12T20:51:29.709Z,100197.50
2023-01-12T20:54:04.193Z,100194.00
2023-01-12T20:56:41.312Z,100189.03
2023-01-12T20:59:09.636Z,100189.03
2023-01-12T21:01:45.099Z,100188.22
2023-01-12T21:04:20.735Z,100181.06
2023-01-12T21:06:50.913Z,100172.13
2023-01-12T21:09:27.301Z,100179.97
2023-01-12T21:11:55.734Z,100182.63
2023-01-12T21:14:30.998Z,100181.63
2023-01-12T21:17:19.253Z,100171.69
2023-01-12T21:19:55.319Z,100164.28
2023-01-12T21:22:33.757Z,100176.88
2023-01-12T21:25:11.513Z,100171.78
2023-01-12T21:27:47.464Z,100156.25
2023-01-12T21:30:19.358Z,100153.59
2023-01-12T21:32:58.802Z,100155.66
2023-01-12T21:35:27.131Z,100154.81
2023-01-12T21:38:03.268Z,100141.38
2023-01-12T21:40:40.345Z,100144.75
2023-01-12T21:43:10.894Z,100147.41
2023-01-12T21:45:50.943Z,100134.94
2023-01-12T21:48:28.028Z,100137.19
2023-01-12T21:51:39.768Z,100134.66
2023-01-12T21:54:21.174Z,100129.34
2023-01-12T21:56:57.372Z,100133.84
2023-01-12T21:59:33.150Z,100127.53
2023-01-12T22:02:02.269Z,100131.31
2023-01-12T22:04:38.801Z,100137.34
2023-01-12T22:07:14.622Z,100134.94
2023-01-12T22:09:43.393Z,100133.84
2023-01-12T22:12:18.659Z,100145.59
2023-01-12T22:14:50.739Z,100133.72
2023-01-12T22:17:25.850Z,100127.53
2023-01-12T22:20:02.885Z,100140.28
2023-01-12T22:22:40.098Z,100132.28
2023-01-12T22:25:11.427Z,100132.44
2023-01-12T22:27:52.131Z,100137.88
2023-01-12T22:30:35.219Z,100144.16
2023-01-12T22:33:10.302Z,100152.28
2023-01-12T22:35:39.524Z,100154.25
2023-01-12T22:38:19.402Z,100154.66
2023-01-12T22:40:47.434Z,100165.44
2023-01-12T22:43:36.556Z,100148.97
2023-01-12T22:46:15.289Z,100136.16
2023-01-12T22:48:56.792Z,100142.28
2023-01-12T22:51:43.783Z,100149.09
2023-01-12T22:54:38.311Z,100149.31
2023-01-12T22:57:17.751Z,100161.78
2023-01-12T22:59:47.015Z,100165.41
2023-01-12T23:02:41.493Z,100181.34
2023-01-12T23:05:18.817Z,100195.63
2023-01-12T23:07:57.427Z,100191.03
2023-01-12T23:10:33.397Z,100195.00
2023-01-12T23:13:24.483Z,100187.13
2023-01-12T23:16:04.701Z,100195.00
2023-01-12T23:18:48.926Z,100179.72
2023-01-12T23:21:28.730Z,100190.72
2023-01-12T23:24:13.235Z,100191.66
2023-01-12T23:26:53.149Z,100185.63
2023-01-12T23:29:40.945Z,100177.66
2023-01-12T23:32:11.371Z,100185.91
2023-01-12T23:34:50.705Z,100181.13
2023-01-12T23:37:22.770Z,100192.84
2023-01-12T23:40:02.193Z,100189.59
2023-01-12T23:42:36.371Z,100186.63
2023-01-12T23:45:16.797Z,100203.41
2023-01-12T23:47:50.978Z,100188.44
2023-01-12T23:50:30.484Z,100199.31
2023-01-12T23:53:51.435Z,100192.44
2023-01-12T23:56:31.511Z,100184.00
2023-01-12T23:59:09.645Z,100187.75
